sensor_id;sensor_type;location;lat;lon;timestamp;P1;durP1;ratioP1;P2;durP2;ratioP2
19869;SDS011;10097;50.862;4.696;2023-06-19T00:00:48;7.97;;;3.60;;
19869;SDS011;10097;50.862;4.696;2023-06-19T00:03:14;9.63;;;3.80;;
19869;SDS011;10097;50.862;4.696;2023-06-19T00:05:40;9.57;;;3.47;;
19869;SDS011;10097;50.862;4.696;2023-06-19T00:08:05;9.18;;;3.92;;
19869;SDS011;10097;50.862;4.696;2023-06-19T00:10:31;8.88;;;4.22;;
19869;SDS011;10097;50.862;4.696;2023-06-19T00:12:57;13.00;;;4.13;;
19869;SDS011;10097;50.862;4.696;2023-06-19T00:15:23;8.70;;;3.67;;
19869;SDS011;10097;50.862;4.696;2023-06-19T00:17:49;7.93;;;3.90;;
19869;SDS011;10097;50.862;4.696;2023-06-19T00:20:14;9.68;;;3.72;;
19869;SDS011;10097;50.862;4.696;2023-06-19T00:22:40;8.35;;;3.97;;
19869;SDS011;10097;50.862;4.696;2023-06-19T00:25:06;8.82;;;3.58;;
19869;SDS011;10097;50.862;4.696;2023-06-19T00:27:32;7.38;;;3.60;;
19869;SDS011;10097;50.862;4.696;2023-06-19T00:29:58;8.93;;;3.88;;
19869;SDS011;10097;50.862;4.696;2023-06-19T00:32:29;7.60;;;3.63;;
19869;SDS011;10097;50.862;4.696;2023-06-19T00:34:55;6.85;;;3.60;;
19869;SDS011;10097;50.862;4.696;2023-06-19T00:37:21;7.72;;;3.80;;
19869;SDS011;10097;50.862;4.696;2023-06-19T00:39:47;8.60;;;3.72;;
19869;SDS011;10097;50.862;4.696;2023-06-19T00:42:12;9.57;;;3.83;;
19869;SDS011;10097;50.862;4.696;2023-06-19T00:44:38;7.25;;;3.53;;
19869;SDS011;10097;50.862;4.696;2023-06-19T00:47:05;7.40;;;3.33;;
19869;SDS011;10097;50.862;4.696;2023-06-19T00:49:30;9.00;;;3.65;;
19869;SDS011;10097;50.862;4.696;2023-06-19T00:51:56;13.60;;;3.78;;
19869;SDS011;10097;50.862;4.696;2023-06-19T00:54:22;9.35;;;3.55;;
19869;SDS011;10097;50.862;4.696;2023-06-19T00:56:48;9.57;;;3.97;;
19869;SDS011;10097;50.862;4.696;2023-06-19T00:59:15;7.38;;;3.20;;
19869;SDS011;10097;50.862;4.696;2023-06-19T01:01:43;6.35;;;2.80;;
19869;SDS011;10097;50.862;4.696;2023-06-19T01:32:20;12.20;;;3.58;;
19869;SDS011;10097;50.862;4.696;2023-06-19T01:35:07;7.60;;;3.65;;
19869;SDS011;10097;50.862;4.696;2023-06-19T01:37:34;15.00;;;3.40;;
19869;SDS011;10097;50.862;4.696;2023-06-19T01:40:02;7.30;;;3.03;;
19869;SDS011;10097;50.862;4.696;2023-06-19T01:42:34;7.45;;;3.20;;
19869;SDS011;10097;50.862;4.696;2023-06-19T01:45:03;8.07;;;3.33;;
19869;SDS011;10097;50.862;4.696;2023-06-19T01:47:29;7.15;;;3.28;;
19869;SDS011;10097;50.862;4.696;2023-06-19T01:49:55;7.78;;;3.22;;
19869;SDS011;10097;50.862;4.696;2023-06-19T01:52:21;7.60;;;3.50;;
19869;SDS011;10097;50.862;4.696;2023-06-19T01:54:46;7.10;;;3.30;;
19869;SDS011;10097;50.862;4.696;2023-06-19T01:57:12;6.28;;;3.20;;
19869;SDS011;10097;50.862;4.696;2023-06-19T01:59:38;11.05;;;3.50;;
19869;SDS011;10097;50.862;4.696;2023-06-19T02:02:03;7.10;;;3.38;;
19869;SDS011;10097;50.862;4.696;2023-06-19T02:04:31;11.63;;;3.65;;
19869;SDS011;10097;50.862;4.696;2023-06-19T02:06:58;9.27;;;3.10;;
19869;SDS011;10097;50.862;4.696;2023-06-19T02:09:23;8.60;;;3.38;;
19869;SDS011;10097;50.862;4.696;2023-06-19T02:11:49;7.88;;;3.30;;
19869;SDS011;10097;50.862;4.696;2023-06-19T02:14:15;7.20;;;3.45;;
19869;SDS011;10097;50.862;4.696;2023-06-19T02:16:40;6.40;;;2.70;;
19869;SDS011;10097;50.862;4.696;2023-06-19T02:19:09;7.00;;;3.03;;
19869;SDS011;10097;50.862;4.696;2023-06-19T02:21:36;7.20;;;3.35;;
19869;SDS011;10097;50.862;4.696;2023-06-19T02:24:01;7.25;;;3.58;;
19869;SDS011;10097;50.862;4.696;2023-06-19T02:26:27;6.18;;;3.05;;
19869;SDS011;10097;50.862;4.696;2023-06-19T02:28:54;8.07;;;2.67;;
19869;SDS011;10097;50.862;4.696;2023-06-19T02:31:21;7.35;;;2.90;;
19869;SDS011;10097;50.862;4.696;2023-06-19T02:33:47;8.45;;;3.00;;
19869;SDS011;10097;50.862;4.696;2023-06-19T02:36:13;9.95;;;3.90;;
19869;SDS011;10097;50.862;4.696;2023-06-19T02:38:47;8.35;;;3.58;;
19869;SDS011;10097;50.862;4.696;2023-06-19T02:41:14;8.52;;;3.03;;
19869;SDS011;10097;50.862;4.696;2023-06-19T02:43:43;6.18;;;3.05;;
19869;SDS011;10097;50.862;4.696;2023-06-19T02:46:10;9.82;;;3.67;;
19869;SDS011;10097;50.862;4.696;2023-06-19T02:48:36;8.88;;;3.63;;
19869;SDS011;10097;50.862;4.696;2023-06-19T02:51:01;7.97;;;3.30;;
19869;SDS011;10097;50.862;4.696;2023-06-19T02:53:27;7.75;;;3.50;;
19869;SDS011;10097;50.862;4.696;2023-06-19T02:55:53;8.95;;;3.60;;
19869;SDS011;10097;50.862;4.696;2023-06-19T02:58:18;8.48;;;3.42;;
19869;SDS011;10097;50.862;4.696;2023-06-19T03:00:44;10.63;;;3.78;;
19869;SDS011;10097;50.862;4.696;2023-06-19T03:03:11;8.20;;;3.38;;
19869;SDS011;10097;50.862;4.696;2023-06-19T03:05:37;6.93;;;3.55;;
19869;SDS011;10097;50.862;4.696;2023-06-19T03:08:03;9.18;;;4.40;;
19869;SDS011;10097;50.862;4.696;2023-06-19T03:10:29;10.73;;;4.47;;
19869;SDS011;10097;50.862;4.696;2023-06-19T03:12:55;12.15;;;4.65;;
19869;SDS011;10097;50.862;4.696;2023-06-19T03:15:23;11.27;;;4.40;;
19869;SDS011;10097;50.862;4.696;2023-06-19T03:17:49;14.05;;;4.78;;
19869;SDS011;10097;50.862;4.696;2023-06-19T03:20:15;11.20;;;5.57;;
19869;SDS011;10097;50.862;4.696;2023-06-19T03:22:41;10.10;;;5.10;;
19869;SDS011;10097;50.862;4.696;2023-06-19T03:25:07;13.20;;;4.90;;
19869;SDS011;10097;50.862;4.696;2023-06-19T03:27:33;13.02;;;5.43;;
19869;SDS011;10097;50.862;4.696;2023-06-19T03:30:00;10.73;;;5.20;;
19869;SDS011;10097;50.862;4.696;2023-06-19T03:32:25;15.38;;;5.85;;
19869;SDS011;10097;50.862;4.696;2023-06-19T03:34:51;10.35;;;5.45;;
19869;SDS011;10097;50.862;4.696;2023-06-19T03:37:17;10.07;;;4.40;;
19869;SDS011;10097;50.862;4.696;2023-06-19T03:39:42;13.38;;;5.47;;
19869;SDS011;10097;50.862;4.696;2023-06-19T03:42:08;15.45;;;5.47;;
19869;SDS011;10097;50.862;4.696;2023-06-19T03:44:34;13.35;;;6.75;;
19869;SDS011;10097;50.862;4.696;2023-06-19T03:46:59;13.07;;;6.32;;
19869;SDS011;10097;50.862;4.696;2023-06-19T03:49:25;10.18;;;5.80;;
19869;SDS011;10097;50.862;4.696;2023-06-19T03:51:51;11.38;;;6.25;;
19869;SDS011;10097;50.862;4.696;2023-06-19T03:54:19;15.05;;;5.47;;
19869;SDS011;10097;50.862;4.696;2023-06-19T03:56:45;14.43;;;6.43;;
19869;SDS011;10097;50.862;4.696;2023-06-19T03:59:11;12.10;;;5.55;;
19869;SDS011;10097;50.862;4.696;2023-06-19T04:01:36;12.02;;;5.97;;
19869;SDS011;10097;50.862;4.696;2023-06-19T04:04:02;15.73;;;6.15;;
19869;SDS011;10097;50.862;4.696;2023-06-19T04:06:28;11.38;;;6.57;;
19869;SDS011;10097;50.862;4.696;2023-06-19T04:08:53;11.93;;;6.32;;
19869;SDS011;10097;50.862;4.696;2023-06-19T04:11:19;11.45;;;5.50;;
19869;SDS011;10097;50.862;4.696;2023-06-19T04:13:45;10.32;;;6.32;;
19869;SDS011;10097;50.862;4.696;2023-06-19T04:16:11;12.07;;;6.97;;
19869;SDS011;10097;50.862;4.696;2023-06-19T04:18:37;13.10;;;6.82;;
19869;SDS011;10097;50.862;4.696;2023-06-19T04:21:03;13.38;;;7.07;;
19869;SDS011;10097;50.862;4.696;2023-06-19T04:23:28;12.52;;;7.57;;
19869;SDS011;10097;50.862;4.696;2023-06-19T04:25:54;17.05;;;9.20;;
19869;SDS011;10097;50.862;4.696;2023-06-19T04:28:20;15.70;;;7.78;;
19869;SDS011;10097;50.862;4.696;2023-06-19T04:30:45;15.85;;;8.30;;
19869;SDS011;10097;50.862;4.696;2023-06-19T04:33:11;14.65;;;7.97;;
19869;SDS011;10097;50.862;4.696;2023-06-19T04:35:37;13.60;;;7.57;;
19869;SDS011;10097;50.862;4.696;2023-06-19T04:38:05;13.50;;;7.68;;
19869;SDS011;10097;50.862;4.696;2023-06-19T04:40:31;13.38;;;8.30;;
19869;SDS011;10097;50.862;4.696;2023-06-19T04:42:58;14.52;;;7.88;;
19869;SDS011;10097;50.862;4.696;2023-06-19T04:45:24;14.60;;;7.28;;
19869;SDS011;10097;50.862;4.696;2023-06-19T04:47:50;12.20;;;7.07;;
19869;SDS011;10097;50.862;4.696;2023-06-19T04:50:16;12.57;;;7.15;;
19869;SDS011;10097;50.862;4.696;2023-06-19T04:52:41;13.15;;;7.05;;
19869;SDS011;10097;50.862;4.696;2023-06-19T04:55:07;13.80;;;6.80;;
19869;SDS011;10097;50.862;4.696;2023-06-19T04:57:36;14.88;;;7.25;;
19869;SDS011;10097;50.862;4.696;2023-06-19T05:00:05;14.18;;;6.55;;
19869;SDS011;10097;50.862;4.696;2023-06-19T05:02:35;13.27;;;6.60;;
19869;SDS011;10097;50.862;4.696;2023-06-19T05:05:01;11.02;;;6.32;;
19869;SDS011;10097;50.862;4.696;2023-06-19T05:07:31;12.85;;;6.50;;
19869;SDS011;10097;50.862;4.696;2023-06-19T05:09:58;13.93;;;6.57;;
19869;SDS011;10097;50.862;4.696;2023-06-19T05:12:23;9.10;;;5.50;;
19869;SDS011;10097;50.862;4.696;2023-06-19T05:14:49;11.23;;;6.25;;
19869;SDS011;10097;50.862;4.696;2023-06-19T05:17:15;11.80;;;6.22;;
19869;SDS011;10097;50.862;4.696;2023-06-19T05:19:42;10.70;;;5.93;;
19869;SDS011;10097;50.862;4.696;2023-06-19T05:22:07;13.73;;;6.28;;
19869;SDS011;10097;50.862;4.696;2023-06-19T05:24:33;12.13;;;6.00;;
19869;SDS011;10097;50.862;4.696;2023-06-19T05:26:59;15.27;;;6.70;;
19869;SDS011;10097;50.862;4.696;2023-06-19T05:29:24;9.65;;;5.45;;
19869;SDS011;10097;50.862;4.696;2023-06-19T05:31:50;12.35;;;6.47;;
19869;SDS011;10097;50.862;4.696;2023-06-19T05:34:16;10.93;;;6.10;;
19869;SDS011;10097;50.862;4.696;2023-06-19T05:36:42;11.93;;;6.45;;
19869;SDS011;10097;50.862;4.696;2023-06-19T05:39:10;12.02;;;5.43;;
19869;SDS011;10097;50.862;4.696;2023-06-19T05:41:36;11.88;;;6.57;;
19869;SDS011;10097;50.862;4.696;2023-06-19T05:44:01;12.32;;;6.82;;
19869;SDS011;10097;50.862;4.696;2023-06-19T05:46:27;14.27;;;6.57;;
19869;SDS011;10097;50.862;4.696;2023-06-19T05:48:53;16.05;;;7.25;;
19869;SDS011;10097;50.862;4.696;2023-06-19T05:51:19;11.68;;;6.50;;
19869;SDS011;10097;50.862;4.696;2023-06-19T05:53:45;12.20;;;6.35;;
19869;SDS011;10097;50.862;4.696;2023-06-19T05:56:11;10.55;;;6.18;;
19869;SDS011;10097;50.862;4.696;2023-06-19T05:58:37;12.82;;;6.32;;
19869;SDS011;10097;50.862;4.696;2023-06-19T06:01:04;10.40;;;6.00;;
19869;SDS011;10097;50.862;4.696;2023-06-19T06:03:29;10.25;;;5.85;;
19869;SDS011;10097;50.862;4.696;2023-06-19T06:05:55;11.25;;;6.40;;
19869;SDS011;10097;50.862;4.696;2023-06-19T06:08:28;11.65;;;7.00;;
19869;SDS011;10097;50.862;4.696;2023-06-19T06:10:54;11.88;;;5.97;;
19869;SDS011;10097;50.862;4.696;2023-06-19T06:13:20;11.30;;;6.57;;
19869;SDS011;10097;50.862;4.696;2023-06-19T06:15:46;13.05;;;5.72;;
19869;SDS011;10097;50.862;4.696;2023-06-19T06:18:11;10.60;;;5.95;;
19869;SDS011;10097;50.862;4.696;2023-06-19T06:20:37;10.98;;;5.97;;
19869;SDS011;10097;50.862;4.696;2023-06-19T06:23:02;12.57;;;6.15;;
19869;SDS011;10097;50.862;4.696;2023-06-19T06:25:28;11.15;;;6.35;;
19869;SDS011;10097;50.862;4.696;2023-06-19T06:27:54;11.90;;;5.80;;
19869;SDS011;10097;50.862;4.696;2023-06-19T06:30:19;12.30;;;5.90;;
19869;SDS011;10097;50.862;4.696;2023-06-19T06:32:45;12.43;;;5.93;;
19869;SDS011;10097;50.862;4.696;2023-06-19T06:35:11;14.98;;;6.03;;
19869;SDS011;10097;50.862;4.696;2023-06-19T06:37:36;10.70;;;6.18;;
19869;SDS011;10097;50.862;4.696;2023-06-19T06:40:02;16.50;;;6.50;;
19869;SDS011;10097;50.862;4.696;2023-06-19T06:42:33;10.20;;;5.85;;
19869;SDS011;10097;50.862;4.696;2023-06-19T06:44:58;12.73;;;6.32;;
19869;SDS011;10097;50.862;4.696;2023-06-19T06:47:24;13.40;;;6.20;;
19869;SDS011;10097;50.862;4.696;2023-06-19T06:49:49;13.70;;;6.32;;
19869;SDS011;10097;50.862;4.696;2023-06-19T06:52:15;13.70;;;6.90;;
19869;SDS011;10097;50.862;4.696;2023-06-19T06:54:41;14.25;;;6.10;;
19869;SDS011;10097;50.862;4.696;2023-06-19T06:57:06;12.77;;;6.95;;
19869;SDS011;10097;50.862;4.696;2023-06-19T06:59:32;15.70;;;7.30;;
19869;SDS011;10097;50.862;4.696;2023-06-19T07:01:58;15.27;;;8.00;;
19869;SDS011;10097;50.862;4.696;2023-06-19T07:04:23;13.23;;;7.55;;
19869;SDS011;10097;50.862;4.696;2023-06-19T07:06:49;12.18;;;7.35;;
19869;SDS011;10097;50.862;4.696;2023-06-19T07:09:15;12.80;;;7.38;;
19869;SDS011;10097;50.862;4.696;2023-06-19T07:11:40;14.23;;;7.20;;
19869;SDS011;10097;50.862;4.696;2023-06-19T07:14:06;14.52;;;7.95;;
19869;SDS011;10097;50.862;4.696;2023-06-19T07:16:32;13.57;;;7.88;;
19869;SDS011;10097;50.862;4.696;2023-06-19T07:18:57;15.65;;;7.82;;
19869;SDS011;10097;50.862;4.696;2023-06-19T07:21:23;15.07;;;8.82;;
19869;SDS011;10097;50.862;4.696;2023-06-19T07:23:49;12.73;;;7.80;;
19869;SDS011;10097;50.862;4.696;2023-06-19T07:26:15;15.82;;;8.38;;
19869;SDS011;10097;50.862;4.696;2023-06-19T07:28:41;15.15;;;8.18;;
19869;SDS011;10097;50.862;4.696;2023-06-19T07:31:07;17.38;;;8.55;;
19869;SDS011;10097;50.862;4.696;2023-06-19T07:33:33;14.35;;;8.93;;
19869;SDS011;10097;50.862;4.696;2023-06-19T07:35:59;13.98;;;7.95;;
19869;SDS011;10097;50.862;4.696;2023-06-19T07:38:27;13.27;;;7.78;;
19869;SDS011;10097;50.862;4.696;2023-06-19T07:40:53;14.63;;;7.30;;
19869;SDS011;10097;50.862;4.696;2023-06-19T07:43:18;15.23;;;6.97;;
19869;SDS011;10097;50.862;4.696;2023-06-19T07:45:44;12.77;;;6.70;;
19869;SDS011;10097;50.862;4.696;2023-06-19T07:48:10;11.77;;;6.45;;
19869;SDS011;10097;50.862;4.696;2023-06-19T07:50:35;11.07;;;6.45;;
19869;SDS011;10097;50.862;4.696;2023-06-19T07:53:01;12.02;;;7.00;;
19869;SDS011;10097;50.862;4.696;2023-06-19T07:55:26;13.77;;;6.18;;
19869;SDS011;10097;50.862;4.696;2023-06-19T07:57:54;13.45;;;6.90;;
19869;SDS011;10097;50.862;4.696;2023-06-19T08:00:21;13.32;;;7.22;;
19869;SDS011;10097;50.862;4.696;2023-06-19T08:02:50;13.23;;;7.55;;
19869;SDS011;10097;50.862;4.696;2023-06-19T08:05:15;11.05;;;6.47;;
19869;SDS011;10097;50.862;4.696;2023-06-19T08:07:42;13.45;;;6.63;;
19869;SDS011;10097;50.862;4.696;2023-06-19T08:10:08;12.85;;;6.57;;
19869;SDS011;10097;50.862;4.696;2023-06-19T08:12:34;15.82;;;7.07;;
19869;SDS011;10097;50.862;4.696;2023-06-19T08:15:00;13.38;;;6.68;;
19869;SDS011;10097;50.862;4.696;2023-06-19T08:17:26;12.52;;;6.60;;
19869;SDS011;10097;50.862;4.696;2023-06-19T08:19:51;11.68;;;6.90;;
19869;SDS011;10097;50.862;4.696;2023-06-19T08:22:17;10.68;;;6.03;;
19869;SDS011;10097;50.862;4.696;2023-06-19T08:24:43;10.68;;;6.00;;
19869;SDS011;10097;50.862;4.696;2023-06-19T08:27:08;12.52;;;6.18;;
19869;SDS011;10097;50.862;4.696;2023-06-19T08:29:34;12.27;;;6.28;;
19869;SDS011;10097;50.862;4.696;2023-06-19T08:32:00;19.20;;;7.55;;
19869;SDS011;10097;50.862;4.696;2023-06-19T08:34:27;13.75;;;7.03;;
19869;SDS011;10097;50.862;4.696;2023-06-19T08:36:58;12.38;;;6.43;;
19869;SDS011;10097;50.862;4.696;2023-06-19T08:39:24;14.98;;;7.18;;
19869;SDS011;10097;50.862;4.696;2023-06-19T08:41:49;13.38;;;6.85;;
19869;SDS011;10097;50.862;4.696;2023-06-19T08:44:15;13.45;;;6.80;;
19869;SDS011;10097;50.862;4.696;2023-06-19T08:46:41;11.73;;;7.18;;
19869;SDS011;10097;50.862;4.696;2023-06-19T08:49:07;15.38;;;7.45;;
19869;SDS011;10097;50.862;4.696;2023-06-19T08:51:35;14.80;;;6.80;;
19869;SDS011;10097;50.862;4.696;2023-06-19T08:54:02;15.23;;;7.38;;
19869;SDS011;10097;50.862;4.696;2023-06-19T08:56:29;15.50;;;7.38;;
19869;SDS011;10097;50.862;4.696;2023-06-19T08:59:15;12.35;;;7.28;;
19869;SDS011;10097;50.862;4.696;2023-06-19T09:01:51;13.98;;;7.93;;
19869;SDS011;10097;50.862;4.696;2023-06-19T09:04:22;18.20;;;7.53;;
19869;SDS011;10097;50.862;4.696;2023-06-19T09:06:56;12.05;;;7.38;;
19869;SDS011;10097;50.862;4.696;2023-06-19T09:09:29;16.92;;;7.45;;
19869;SDS011;10097;50.862;4.696;2023-06-19T09:12:03;12.57;;;7.35;;
19869;SDS011;10097;50.862;4.696;2023-06-19T09:14:31;13.60;;;7.28;;
19869;SDS011;10097;50.862;4.696;2023-06-19T09:17:04;13.30;;;7.13;;
19869;SDS011;10097;50.862;4.696;2023-06-19T09:19:32;13.80;;;6.97;;
19869;SDS011;10097;50.862;4.696;2023-06-19T09:22:06;16.73;;;8.13;;
19869;SDS011;10097;50.862;4.696;2023-06-19T09:24:33;13.65;;;7.43;;
19869;SDS011;10097;50.862;4.696;2023-06-19T09:27:07;16.15;;;6.65;;
19869;SDS011;10097;50.862;4.696;2023-06-19T09:29:35;11.05;;;6.55;;
19869;SDS011;10097;50.862;4.696;2023-06-19T09:32:13;16.05;;;7.22;;
19869;SDS011;10097;50.862;4.696;2023-06-19T09:34:39;12.88;;;6.32;;
19869;SDS011;10097;50.862;4.696;2023-06-19T09:37:05;11.73;;;6.50;;
19869;SDS011;10097;50.862;4.696;2023-06-19T09:39:32;15.18;;;7.28;;
19869;SDS011;10097;50.862;4.696;2023-06-19T09:42:02;14.38;;;6.13;;
19869;SDS011;10097;50.862;4.696;2023-06-19T09:44:30;12.52;;;6.20;;
19869;SDS011;10097;50.862;4.696;2023-06-19T09:47:01;14.13;;;6.90;;
19869;SDS011;10097;50.862;4.696;2023-06-19T09:49:31;13.52;;;6.53;;
19869;SDS011;10097;50.862;4.696;2023-06-19T09:51:59;11.48;;;5.95;;
19869;SDS011;10097;50.862;4.696;2023-06-19T09:54:24;13.40;;;6.22;;
19869;SDS011;10097;50.862;4.696;2023-06-19T09:56:51;11.68;;;6.13;;
19869;SDS011;10097;50.862;4.696;2023-06-19T09:59:20;12.95;;;6.15;;
19869;SDS011;10097;50.862;4.696;2023-06-19T10:01:47;12.80;;;6.97;;
19869;SDS011;10097;50.862;4.696;2023-06-19T10:04:14;15.50;;;7.13;;
19869;SDS011;10097;50.862;4.696;2023-06-19T10:06:44;12.07;;;6.47;;
19869;SDS011;10097;50.862;4.696;2023-06-19T10:09:13;12.25;;;6.90;;
19869;SDS011;10097;50.862;4.696;2023-06-19T10:11:52;12.13;;;6.55;;
19869;SDS011;10097;50.862;4.696;2023-06-19T10:14:21;12.90;;;6.78;;
19869;SDS011;10097;50.862;4.696;2023-06-19T10:16:48;12.40;;;6.82;;
19869;SDS011;10097;50.862;4.696;2023-06-19T10:19:15;12.57;;;6.13;;
19869;SDS011;10097;50.862;4.696;2023-06-19T10:21:54;12.02;;;6.78;;
19869;SDS011;10097;50.862;4.696;2023-06-19T10:24:20;14.10;;;6.50;;
19869;SDS011;10097;50.862;4.696;2023-06-19T10:26:59;11.77;;;6.70;;
19869;SDS011;10097;50.862;4.696;2023-06-19T10:29:26;14.05;;;7.07;;
19869;SDS011;10097;50.862;4.696;2023-06-19T10:32:02;16.95;;;8.05;;
19869;SDS011;10097;50.862;4.696;2023-06-19T10:34:34;15.32;;;7.13;;
19869;SDS011;10097;50.862;4.696;2023-06-19T10:37:01;16.00;;;7.20;;
19869;SDS011;10097;50.862;4.696;2023-06-19T10:39:27;12.77;;;6.85;;
19869;SDS011;10097;50.862;4.696;2023-06-19T10:41:52;13.05;;;7.00;;
19869;SDS011;10097;50.862;4.696;2023-06-19T10:44:23;13.93;;;7.00;;
19869;SDS011;10097;50.862;4.696;2023-06-19T10:46:50;14.18;;;6.60;;
19869;SDS011;10097;50.862;4.696;2023-06-19T10:49:18;14.13;;;6.30;;
19869;SDS011;10097;50.862;4.696;2023-06-19T10:51:44;12.70;;;6.28;;
19869;SDS011;10097;50.862;4.696;2023-06-19T10:54:09;14.05;;;6.07;;
19869;SDS011;10097;50.862;4.696;2023-06-19T10:56:35;13.85;;;6.43;;
19869;SDS011;10097;50.862;4.696;2023-06-19T10:59:03;12.75;;;6.25;;
19869;SDS011;10097;50.862;4.696;2023-06-19T11:01:37;11.73;;;5.15;;
19869;SDS011;10097;50.862;4.696;2023-06-19T11:04:06;11.45;;;4.72;;
19869;SDS011;10097;50.862;4.696;2023-06-19T11:06:32;12.20;;;4.85;;
19869;SDS011;10097;50.862;4.696;2023-06-19T11:08:59;11.05;;;4.97;;
19869;SDS011;10097;50.862;4.696;2023-06-19T11:11:36;10.60;;;5.38;;
19869;SDS011;10097;50.862;4.696;2023-06-19T11:14:09;10.73;;;5.18;;
19869;SDS011;10097;50.862;4.696;2023-06-19T11:16:37;12.68;;;4.93;;
19869;SDS011;10097;50.862;4.696;2023-06-19T11:19:06;10.75;;;5.00;;
19869;SDS011;10097;50.862;4.696;2023-06-19T11:21:33;12.93;;;4.97;;
19869;SDS011;10097;50.862;4.696;2023-06-19T11:24:10;10.45;;;4.55;;
19869;SDS011;10097;50.862;4.696;2023-06-19T11:26:41;10.38;;;4.80;;
19869;SDS011;10097;50.862;4.696;2023-06-19T11:29:18;11.48;;;4.78;;
19869;SDS011;10097;50.862;4.696;2023-06-19T11:31:44;11.45;;;4.55;;
19869;SDS011;10097;50.862;4.696;2023-06-19T11:34:11;10.63;;;4.75;;
19869;SDS011;10097;50.862;4.696;2023-06-19T11:36:38;12.15;;;4.65;;
19869;SDS011;10097;50.862;4.696;2023-06-19T11:39:04;10.90;;;5.30;;
19869;SDS011;10097;50.862;4.696;2023-06-19T11:41:36;8.02;;;4.07;;
19869;SDS011;10097;50.862;4.696;2023-06-19T11:44:05;9.23;;;4.38;;
19869;SDS011;10097;50.862;4.696;2023-06-19T11:46:34;17.00;;;5.28;;
19869;SDS011;10097;50.862;4.696;2023-06-19T11:51:39;10.07;;;4.65;;
19869;SDS011;10097;50.862;4.696;2023-06-19T11:54:06;9.73;;;5.20;;
19869;SDS011;10097;50.862;4.696;2023-06-19T11:56:36;10.48;;;4.78;;
19869;SDS011;10097;50.862;4.696;2023-06-19T11:59:03;10.13;;;4.88;;
19869;SDS011;10097;50.862;4.696;2023-06-19T12:01:29;10.02;;;4.60;;
19869;SDS011;10097;50.862;4.696;2023-06-19T12:03:56;9.63;;;4.97;;
19869;SDS011;10097;50.862;4.696;2023-06-19T12:06:22;8.90;;;4.53;;
19869;SDS011;10097;50.862;4.696;2023-06-19T12:08:47;8.90;;;4.70;;
19869;SDS011;10097;50.862;4.696;2023-06-19T12:11:13;10.45;;;4.63;;
19869;SDS011;10097;50.862;4.696;2023-06-19T12:13:42;8.82;;;4.82;;
19869;SDS011;10097;50.862;4.696;2023-06-19T12:16:09;9.57;;;4.70;;
19869;SDS011;10097;50.862;4.696;2023-06-19T12:18:36;11.43;;;4.82;;
19869;SDS011;10097;50.862;4.696;2023-06-19T12:21:02;12.68;;;4.60;;
19869;SDS011;10097;50.862;4.696;2023-06-19T12:23:28;11.32;;;4.85;;
19869;SDS011;10097;50.862;4.696;2023-06-19T12:25:54;7.97;;;4.22;;
19869;SDS011;10097;50.862;4.696;2023-06-19T12:28:20;11.60;;;4.45;;
19869;SDS011;10097;50.862;4.696;2023-06-19T12:30:46;8.48;;;4.20;;
19869;SDS011;10097;50.862;4.696;2023-06-19T12:33:19;9.27;;;4.32;;
19869;SDS011;10097;50.862;4.696;2023-06-19T12:35:48;13.18;;;4.55;;
19869;SDS011;10097;50.862;4.696;2023-06-19T12:38:13;8.98;;;4.65;;
19869;SDS011;10097;50.862;4.696;2023-06-19T12:40:39;8.85;;;4.47;;
19869;SDS011;10097;50.862;4.696;2023-06-19T12:43:05;9.57;;;3.97;;
19869;SDS011;10097;50.862;4.696;2023-06-19T12:45:31;10.18;;;4.70;;
19869;SDS011;10097;50.862;4.696;2023-06-19T12:47:57;8.00;;;4.20;;
19869;SDS011;10097;50.862;4.696;2023-06-19T12:50:23;11.07;;;4.90;;
19869;SDS011;10097;50.862;4.696;2023-06-19T12:52:49;9.15;;;4.13;;
19869;SDS011;10097;50.862;4.696;2023-06-19T12:55:15;8.40;;;4.07;;
19869;SDS011;10097;50.862;4.696;2023-06-19T12:57:41;9.85;;;4.75;;
19869;SDS011;10097;50.862;4.696;2023-06-19T13:00:10;11.50;;;4.65;;
19869;SDS011;10097;50.862;4.696;2023-06-19T13:02:37;11.02;;;4.00;;
19869;SDS011;10097;50.862;4.696;2023-06-19T13:05:04;8.55;;;4.18;;
19869;SDS011;10097;50.862;4.696;2023-06-19T13:07:30;7.38;;;3.97;;
19869;SDS011;10097;50.862;4.696;2023-06-19T13:09:56;6.63;;;3.70;;
19869;SDS011;10097;50.862;4.696;2023-06-19T13:12:23;8.55;;;4.32;;
19869;SDS011;10097;50.862;4.696;2023-06-19T13:14:48;7.93;;;3.92;;
19869;SDS011;10097;50.862;4.696;2023-06-19T13:17:14;8.25;;;4.03;;
19869;SDS011;10097;50.862;4.696;2023-06-19T13:19:40;9.00;;;4.15;;
19869;SDS011;10097;50.862;4.696;2023-06-19T13:22:06;7.18;;;3.80;;
19869;SDS011;10097;50.862;4.696;2023-06-19T13:24:31;7.10;;;3.67;;
19869;SDS011;10097;50.862;4.696;2023-06-19T13:26:57;7.07;;;3.72;;
19869;SDS011;10097;50.862;4.696;2023-06-19T13:29:23;9.73;;;4.53;;
19869;SDS011;10097;50.862;4.696;2023-06-19T13:31:48;9.15;;;4.53;;
19869;SDS011;10097;50.862;4.696;2023-06-19T13:34:14;11.18;;;4.63;;
19869;SDS011;10097;50.862;4.696;2023-06-19T13:36:41;7.68;;;3.83;;
19869;SDS011;10097;50.862;4.696;2023-06-19T13:39:06;9.25;;;3.97;;
19869;SDS011;10097;50.862;4.696;2023-06-19T13:41:32;10.23;;;4.63;;
19869;SDS011;10097;50.862;4.696;2023-06-19T13:43:59;9.40;;;4.10;;
19869;SDS011;10097;50.862;4.696;2023-06-19T13:46:25;7.65;;;3.72;;
19869;SDS011;10097;50.862;4.696;2023-06-19T13:48:57;6.72;;;3.65;;
19869;SDS011;10097;50.862;4.696;2023-06-19T13:51:23;8.32;;;4.00;;
19869;SDS011;10097;50.862;4.696;2023-06-19T13:53:50;7.93;;;3.70;;
19869;SDS011;10097;50.862;4.696;2023-06-19T13:56:16;7.88;;;4.10;;
19869;SDS011;10097;50.862;4.696;2023-06-19T13:58:42;8.80;;;4.07;;
19869;SDS011;10097;50.862;4.696;2023-06-19T14:01:08;9.93;;;4.10;;
19869;SDS011;10097;50.862;4.696;2023-06-19T14:03:33;8.40;;;3.70;;
19869;SDS011;10097;50.862;4.696;2023-06-19T14:06:01;7.25;;;3.53;;
19869;SDS011;10097;50.862;4.696;2023-06-19T14:08:34;9.02;;;4.30;;
19869;SDS011;10097;50.862;4.696;2023-06-19T14:11:00;9.85;;;4.25;;
19869;SDS011;10097;50.862;4.696;2023-06-19T14:13:26;6.88;;;3.55;;
19869;SDS011;10097;50.862;4.696;2023-06-19T14:15:52;8.45;;;3.83;;
19869;SDS011;10097;50.862;4.696;2023-06-19T14:18:18;7.00;;;3.55;;
19869;SDS011;10097;50.862;4.696;2023-06-19T14:20:44;7.07;;;3.58;;
19869;SDS011;10097;50.862;4.696;2023-06-19T14:23:10;9.52;;;4.20;;
19869;SDS011;10097;50.862;4.696;2023-06-19T14:25:35;9.25;;;4.32;;
19869;SDS011;10097;50.862;4.696;2023-06-19T14:28:01;9.55;;;3.58;;
19869;SDS011;10097;50.862;4.696;2023-06-19T14:30:27;12.57;;;3.85;;
19869;SDS011;10097;50.862;4.696;2023-06-19T14:32:52;7.85;;;3.28;;
19869;SDS011;10097;50.862;4.696;2023-06-19T14:35:18;6.47;;;3.25;;
19869;SDS011;10097;50.862;4.696;2023-06-19T14:37:44;8.38;;;3.38;;
19869;SDS011;10097;50.862;4.696;2023-06-19T14:40:09;6.50;;;3.33;;
19869;SDS011;10097;50.862;4.696;2023-06-19T14:42:35;7.72;;;3.53;;
19869;SDS011;10097;50.862;4.696;2023-06-19T14:45:01;8.55;;;3.47;;
19869;SDS011;10097;50.862;4.696;2023-06-19T14:47:27;6.80;;;3.35;;
19869;SDS011;10097;50.862;4.696;2023-06-19T14:49:52;8.52;;;3.47;;
19869;SDS011;10097;50.862;4.696;2023-06-19T14:52:18;9.55;;;3.47;;
19869;SDS011;10097;50.862;4.696;2023-06-19T14:54:44;6.32;;;3.28;;
19869;SDS011;10097;50.862;4.696;2023-06-19T14:57:16;8.30;;;3.17;;
19869;SDS011;10097;50.862;4.696;2023-06-19T14:59:42;5.70;;;3.35;;
19869;SDS011;10097;50.862;4.696;2023-06-19T15:02:08;8.00;;;3.55;;
19869;SDS011;10097;50.862;4.696;2023-06-19T15:04:36;8.00;;;3.30;;
19869;SDS011;10097;50.862;4.696;2023-06-19T15:07:02;6.32;;;2.92;;